sensor_id;sensor_type;location;lat;lon;timestamp;P1;durP1;ratioP1;P2;durP2;ratioP2
24261;SDS011;12385;51.412;5.540;2022-07-06T00:02:05;3.95;;;2.10;;
24261;SDS011;12385;51.412;5.540;2022-07-06T00:04:31;5.78;;;2.20;;
24261;SDS011;12385;51.412;5.540;2022-07-06T00:06:56;5.78;;;2.30;;
24261;SDS011;12385;51.412;5.540;2022-07-06T00:09:22;4.50;;;2.28;;
24261;SDS011;12385;51.412;5.540;2022-07-06T00:11:48;4.55;;;2.20;;
24261;SDS011;12385;51.412;5.540;2022-07-06T00:14:13;5.95;;;2.50;;
24261;SDS011;12385;51.412;5.540;2022-07-06T00:16:39;5.22;;;2.30;;
24261;SDS011;12385;51.412;5.540;2022-07-06T00:19:05;4.95;;;2.60;;
24261;SDS011;12385;51.412;5.540;2022-07-06T00:21:30;6.28;;;2.30;;
24261;SDS011;12385;51.412;5.540;2022-07-06T00:23:56;8.27;;;2.70;;
24261;SDS011;12385;51.412;5.540;2022-07-06T00:26:21;8.75;;;2.53;;
24261;SDS011;12385;51.412;5.540;2022-07-06T00:28:48;7.82;;;2.67;;
24261;SDS011;12385;51.412;5.540;2022-07-06T00:31:17;4.85;;;2.50;;
24261;SDS011;12385;51.412;5.540;2022-07-06T00:33:43;5.00;;;2.63;;
24261;SDS011;12385;51.412;5.540;2022-07-06T00:36:08;3.72;;;2.22;;
24261;SDS011;12385;51.412;5.540;2022-07-06T00:38:34;4.25;;;2.40;;
24261;SDS011;12385;51.412;5.540;2022-07-06T00:41:00;8.23;;;2.92;;
24261;SDS011;12385;51.412;5.540;2022-07-06T00:43:25;5.65;;;2.55;;
24261;SDS011;12385;51.412;5.540;2022-07-06T00:45:51;4.65;;;2.80;;
24261;SDS011;12385;51.412;5.540;2022-07-06T00:48:18;6.28;;;2.92;;
24261;SDS011;12385;51.412;5.540;2022-07-06T00:50:43;6.07;;;2.85;;
24261;SDS011;12385;51.412;5.540;2022-07-06T00:53:09;5.80;;;2.88;;
24261;SDS011;12385;51.412;5.540;2022-07-06T00:55:36;6.45;;;3.10;;
24261;SDS011;12385;51.412;5.540;2022-07-06T00:58:06;7.18;;;3.10;;
24261;SDS011;12385;51.412;5.540;2022-07-06T01:00:33;4.90;;;3.00;;
24261;SDS011;12385;51.412;5.540;2022-07-06T01:02:59;6.00;;;3.00;;
24261;SDS011;12385;51.412;5.540;2022-07-06T01:05:25;6.47;;;3.50;;
24261;SDS011;12385;51.412;5.540;2022-07-06T01:07:52;6.60;;;3.20;;
24261;SDS011;12385;51.412;5.540;2022-07-06T01:10:18;6.32;;;3.35;;
24261;SDS011;12385;51.412;5.540;2022-07-06T01:12:45;6.82;;;3.47;;
24261;SDS011;12385;51.412;5.540;2022-07-06T01:15:14;5.47;;;3.38;;
24261;SDS011;12385;51.412;5.540;2022-07-06T01:17:41;9.52;;;3.67;;
24261;SDS011;12385;51.412;5.540;2022-07-06T01:20:14;8.02;;;3.97;;
24261;SDS011;12385;51.412;5.540;2022-07-06T01:22:40;10.50;;;3.95;;
24261;SDS011;12385;51.412;5.540;2022-07-06T01:25:07;5.80;;;3.70;;
24261;SDS011;12385;51.412;5.540;2022-07-06T01:27:36;7.25;;;3.92;;
24261;SDS011;12385;51.412;5.540;2022-07-06T01:30:08;6.25;;;3.97;;
24261;SDS011;12385;51.412;5.540;2022-07-06T01:32:36;9.50;;;4.68;;
24261;SDS011;12385;51.412;5.540;2022-07-06T01:35:02;8.95;;;4.63;;
24261;SDS011;12385;51.412;5.540;2022-07-06T01:37:32;7.40;;;4.53;;
24261;SDS011;12385;51.412;5.540;2022-07-06T01:39:59;9.38;;;5.18;;
24261;SDS011;12385;51.412;5.540;2022-07-06T01:42:25;8.05;;;5.00;;
24261;SDS011;12385;51.412;5.540;2022-07-06T01:44:51;11.75;;;4.78;;
24261;SDS011;12385;51.412;5.540;2022-07-06T01:47:17;9.07;;;4.90;;
24261;SDS011;12385;51.412;5.540;2022-07-06T01:49:42;7.25;;;4.50;;
24261;SDS011;12385;51.412;5.540;2022-07-06T01:52:08;10.13;;;5.03;;
24261;SDS011;12385;51.412;5.540;2022-07-06T01:54:34;8.95;;;4.82;;
24261;SDS011;12385;51.412;5.540;2022-07-06T01:56:59;8.75;;;4.82;;
24261;SDS011;12385;51.412;5.540;2022-07-06T01:59:25;8.95;;;5.40;;
24261;SDS011;12385;51.412;5.540;2022-07-06T02:01:51;9.55;;;5.60;;
24261;SDS011;12385;51.412;5.540;2022-07-06T02:04:17;10.63;;;5.53;;
24261;SDS011;12385;51.412;5.540;2022-07-06T02:06:45;7.43;;;4.70;;
24261;SDS011;12385;51.412;5.540;2022-07-06T02:09:11;11.23;;;5.63;;
24261;SDS011;12385;51.412;5.540;2022-07-06T02:11:36;7.60;;;5.10;;
24261;SDS011;12385;51.412;5.540;2022-07-06T02:14:02;8.05;;;4.93;;
24261;SDS011;12385;51.412;5.540;2022-07-06T02:16:28;6.28;;;4.90;;
24261;SDS011;12385;51.412;5.540;2022-07-06T02:18:53;8.73;;;5.38;;
24261;SDS011;12385;51.412;5.540;2022-07-06T02:21:19;8.18;;;4.78;;
24261;SDS011;12385;51.412;5.540;2022-07-06T02:23:45;10.02;;;5.22;;
24261;SDS011;12385;51.412;5.540;2022-07-06T02:26:10;8.30;;;6.00;;
24261;SDS011;12385;51.412;5.540;2022-07-06T02:28:36;7.68;;;5.85;;
24261;SDS011;12385;51.412;5.540;2022-07-06T02:31:01;11.65;;;6.32;;
24261;SDS011;12385;51.412;5.540;2022-07-06T02:33:27;9.20;;;6.13;;
24261;SDS011;12385;51.412;5.540;2022-07-06T02:35:53;8.52;;;5.82;;
24261;SDS011;12385;51.412;5.540;2022-07-06T02:38:18;8.90;;;6.70;;
24261;SDS011;12385;51.412;5.540;2022-07-06T02:40:44;11.20;;;6.75;;
24261;SDS011;12385;51.412;5.540;2022-07-06T02:43:11;9.35;;;7.13;;
24261;SDS011;12385;51.412;5.540;2022-07-06T02:45:36;10.77;;;6.88;;
24261;SDS011;12385;51.412;5.540;2022-07-06T02:48:02;10.07;;;6.63;;
24261;SDS011;12385;51.412;5.540;2022-07-06T02:50:28;13.77;;;7.72;;
24261;SDS011;12385;51.412;5.540;2022-07-06T02:52:53;11.70;;;7.45;;
24261;SDS011;12385;51.412;5.540;2022-07-06T02:55:20;12.18;;;7.60;;
24261;SDS011;12385;51.412;5.540;2022-07-06T02:57:46;9.68;;;6.80;;
24261;SDS011;12385;51.412;5.540;2022-07-06T03:00:11;11.50;;;7.50;;
24261;SDS011;12385;51.412;5.540;2022-07-06T03:02:37;14.40;;;7.53;;
24261;SDS011;12385;51.412;5.540;2022-07-06T03:05:04;11.27;;;7.25;;
24261;SDS011;12385;51.412;5.540;2022-07-06T03:07:30;10.32;;;7.45;;
24261;SDS011;12385;51.412;5.540;2022-07-06T03:09:55;11.23;;;7.07;;
24261;SDS011;12385;51.412;5.540;2022-07-06T03:12:21;8.93;;;7.18;;
24261;SDS011;12385;51.412;5.540;2022-07-06T03:14:47;11.25;;;7.03;;
24261;SDS011;12385;51.412;5.540;2022-07-06T03:17:12;12.05;;;8.20;;
24261;SDS011;12385;51.412;5.540;2022-07-06T03:19:38;9.77;;;7.47;;
24261;SDS011;12385;51.412;5.540;2022-07-06T03:22:04;10.70;;;7.90;;
24261;SDS011;12385;51.412;5.540;2022-07-06T03:24:29;8.68;;;7.03;;
24261;SDS011;12385;51.412;5.540;2022-07-06T03:26:55;9.05;;;7.40;;
24261;SDS011;12385;51.412;5.540;2022-07-06T03:29:21;12.02;;;7.53;;
24261;SDS011;12385;51.412;5.540;2022-07-06T03:31:46;11.82;;;7.50;;
24261;SDS011;12385;51.412;5.540;2022-07-06T03:34:12;10.82;;;7.05;;
24261;SDS011;12385;51.412;5.540;2022-07-06T03:36:38;10.30;;;7.50;;
24261;SDS011;12385;51.412;5.540;2022-07-06T03:39:04;9.68;;;7.15;;
24261;SDS011;12385;51.412;5.540;2022-07-06T03:41:29;12.57;;;8.57;;
24261;SDS011;12385;51.412;5.540;2022-07-06T03:43:55;13.55;;;9.25;;
24261;SDS011;12385;51.412;5.540;2022-07-06T03:46:21;11.80;;;8.43;;
24261;SDS011;12385;51.412;5.540;2022-07-06T03:48:46;12.30;;;8.65;;
24261;SDS011;12385;51.412;5.540;2022-07-06T03:51:12;11.90;;;7.68;;
24261;SDS011;12385;51.412;5.540;2022-07-06T03:53:37;11.85;;;7.78;;
24261;SDS011;12385;51.412;5.540;2022-07-06T03:56:03;10.25;;;8.00;;
24261;SDS011;12385;51.412;5.540;2022-07-06T03:58:48;15.45;;;8.05;;
24261;SDS011;12385;51.412;5.540;2022-07-06T04:01:13;13.07;;;8.38;;
24261;SDS011;12385;51.412;5.540;2022-07-06T04:03:40;10.63;;;8.25;;
24261;SDS011;12385;51.412;5.540;2022-07-06T04:06:07;12.55;;;8.52;;
24261;SDS011;12385;51.412;5.540;2022-07-06T04:08:33;14.55;;;7.45;;
24261;SDS011;12385;51.412;5.540;2022-07-06T04:10:58;11.43;;;8.48;;
24261;SDS011;12385;51.412;5.540;2022-07-06T04:13:24;12.32;;;8.07;;
24261;SDS011;12385;51.412;5.540;2022-07-06T04:15:52;12.30;;;7.80;;
24261;SDS011;12385;51.412;5.540;2022-07-06T04:18:18;11.50;;;7.47;;
24261;SDS011;12385;51.412;5.540;2022-07-06T04:20:43;13.27;;;7.40;;
24261;SDS011;12385;51.412;5.540;2022-07-06T04:23:10;10.13;;;7.25;;
24261;SDS011;12385;51.412;5.540;2022-07-06T04:25:36;15.27;;;7.80;;
24261;SDS011;12385;51.412;5.540;2022-07-06T04:28:02;10.43;;;7.43;;
24261;SDS011;12385;51.412;5.540;2022-07-06T04:30:28;12.63;;;7.30;;
24261;SDS011;12385;51.412;5.540;2022-07-06T04:32:53;12.70;;;7.50;;
24261;SDS011;12385;51.412;5.540;2022-07-06T04:35:20;10.07;;;7.20;;
24261;SDS011;12385;51.412;5.540;2022-07-06T04:37:46;10.68;;;6.40;;
24261;SDS011;12385;51.412;5.540;2022-07-06T04:40:12;8.90;;;6.85;;
24261;SDS011;12385;51.412;5.540;2022-07-06T04:42:38;12.35;;;7.07;;
24261;SDS011;12385;51.412;5.540;2022-07-06T04:45:04;12.55;;;6.50;;
24261;SDS011;12385;51.412;5.540;2022-07-06T04:47:30;12.25;;;6.15;;
24261;SDS011;12385;51.412;5.540;2022-07-06T04:49:56;10.82;;;7.25;;
24261;SDS011;12385;51.412;5.540;2022-07-06T04:52:22;14.18;;;7.28;;
24261;SDS011;12385;51.412;5.540;2022-07-06T04:54:47;12.95;;;7.03;;
24261;SDS011;12385;51.412;5.540;2022-07-06T04:57:13;12.20;;;6.88;;
24261;SDS011;12385;51.412;5.540;2022-07-06T04:59:38;12.30;;;6.60;;
24261;SDS011;12385;51.412;5.540;2022-07-06T05:02:04;12.00;;;6.63;;
24261;SDS011;12385;51.412;5.540;2022-07-06T05:04:30;9.82;;;6.30;;
24261;SDS011;12385;51.412;5.540;2022-07-06T05:06:57;10.52;;;6.32;;
24261;SDS011;12385;51.412;5.540;2022-07-06T05:09:22;9.18;;;6.05;;
24261;SDS011;12385;51.412;5.540;2022-07-06T05:11:48;8.07;;;5.90;;
24261;SDS011;12385;51.412;5.540;2022-07-06T05:14:13;9.70;;;5.70;;
24261;SDS011;12385;51.412;5.540;2022-07-06T05:16:39;9.82;;;6.07;;
24261;SDS011;12385;51.412;5.540;2022-07-06T05:19:04;7.03;;;5.43;;
24261;SDS011;12385;51.412;5.540;2022-07-06T05:21:30;10.82;;;5.68;;
24261;SDS011;12385;51.412;5.540;2022-07-06T05:23:55;14.10;;;5.25;;
24261;SDS011;12385;51.412;5.540;2022-07-06T05:26:21;7.85;;;5.25;;
24261;SDS011;12385;51.412;5.540;2022-07-06T05:28:47;11.80;;;5.20;;
24261;SDS011;12385;51.412;5.540;2022-07-06T05:31:12;9.88;;;4.80;;
24261;SDS011;12385;51.412;5.540;2022-07-06T05:33:38;8.07;;;4.20;;
24261;SDS011;12385;51.412;5.540;2022-07-06T05:36:03;9.70;;;4.50;;
24261;SDS011;12385;51.412;5.540;2022-07-06T05:38:29;10.27;;;4.13;;
24261;SDS011;12385;51.412;5.540;2022-07-06T05:40:55;6.95;;;3.70;;
24261;SDS011;12385;51.412;5.540;2022-07-06T05:43:20;6.90;;;3.92;;
24261;SDS011;12385;51.412;5.540;2022-07-06T05:45:46;13.93;;;3.72;;
24261;SDS011;12385;51.412;5.540;2022-07-06T05:48:12;7.10;;;3.38;;
24261;SDS011;12385;51.412;5.540;2022-07-06T05:50:57;6.85;;;2.92;;
24261;SDS011;12385;51.412;5.540;2022-07-06T05:53:23;7.82;;;2.65;;
24261;SDS011;12385;51.412;5.540;2022-07-06T05:55:48;5.30;;;2.80;;
24261;SDS011;12385;51.412;5.540;2022-07-06T05:58:14;4.88;;;2.47;;
24261;SDS011;12385;51.412;5.540;2022-07-06T06:00:40;5.65;;;2.08;;
24261;SDS011;12385;51.412;5.540;2022-07-06T06:03:06;4.63;;;1.85;;
24261;SDS011;12385;51.412;5.540;2022-07-06T06:05:31;4.28;;;1.70;;
24261;SDS011;12385;51.412;5.540;2022-07-06T06:07:57;7.70;;;1.70;;
24261;SDS011;12385;51.412;5.540;2022-07-06T06:10:25;2.38;;;1.13;;
24261;SDS011;12385;51.412;5.540;2022-07-06T06:12:50;3.67;;;1.00;;
24261;SDS011;12385;51.412;5.540;2022-07-06T06:15:16;3.80;;;1.00;;
24261;SDS011;12385;51.412;5.540;2022-07-06T06:17:42;3.13;;;0.98;;
24261;SDS011;12385;51.412;5.540;2022-07-06T06:20:09;2.67;;;0.90;;
24261;SDS011;12385;51.412;5.540;2022-07-06T06:22:52;5.57;;;0.90;;
24261;SDS011;12385;51.412;5.540;2022-07-06T06:25:26;4.65;;;1.17;;
24261;SDS011;12385;51.412;5.540;2022-07-06T06:27:54;2.60;;;0.80;;
24261;SDS011;12385;51.412;5.540;2022-07-06T06:30:19;3.28;;;1.02;;
24261;SDS011;12385;51.412;5.540;2022-07-06T06:32:45;3.92;;;0.80;;
24261;SDS011;12385;51.412;5.540;2022-07-06T06:35:10;2.80;;;0.70;;
24261;SDS011;12385;51.412;5.540;2022-07-06T06:37:36;1.33;;;0.70;;
24261;SDS011;12385;51.412;5.540;2022-07-06T06:40:03;4.32;;;0.80;;
24261;SDS011;12385;51.412;5.540;2022-07-06T06:42:30;4.22;;;0.70;;
24261;SDS011;12385;51.412;5.540;2022-07-06T06:44:55;2.80;;;0.90;;
24261;SDS011;12385;51.412;5.540;2022-07-06T06:47:21;2.15;;;0.80;;
24261;SDS011;12385;51.412;5.540;2022-07-06T06:49:46;2.45;;;0.70;;
24261;SDS011;12385;51.412;5.540;2022-07-06T06:52:12;6.90;;;0.90;;
24261;SDS011;12385;51.412;5.540;2022-07-06T06:54:38;2.53;;;0.60;;
24261;SDS011;12385;51.412;5.540;2022-07-06T06:57:04;2.72;;;0.60;;
24261;SDS011;12385;51.412;5.540;2022-07-06T06:59:29;3.60;;;0.90;;
24261;SDS011;12385;51.412;5.540;2022-07-06T07:01:55;3.40;;;0.80;;
24261;SDS011;12385;51.412;5.540;2022-07-06T07:04:20;2.42;;;0.52;;
24261;SDS011;12385;51.412;5.540;2022-07-06T07:06:46;2.90;;;0.60;;
24261;SDS011;12385;51.412;5.540;2022-07-06T07:09:12;2.85;;;0.70;;
24261;SDS011;12385;51.412;5.540;2022-07-06T07:11:37;2.40;;;0.68;;
24261;SDS011;12385;51.412;5.540;2022-07-06T07:14:03;6.25;;;0.80;;
24261;SDS011;12385;51.412;5.540;2022-07-06T07:16:29;5.78;;;0.70;;
24261;SDS011;12385;51.412;5.540;2022-07-06T07:18:54;3.28;;;0.90;;
24261;SDS011;12385;51.412;5.540;2022-07-06T07:21:20;4.15;;;1.10;;
24261;SDS011;12385;51.412;5.540;2022-07-06T07:23:46;4.68;;;0.90;;
24261;SDS011;12385;51.412;5.540;2022-07-06T07:26:11;2.17;;;0.80;;
24261;SDS011;12385;51.412;5.540;2022-07-06T07:28:37;2.08;;;0.80;;
24261;SDS011;12385;51.412;5.540;2022-07-06T07:31:04;2.70;;;0.70;;
24261;SDS011;12385;51.412;5.540;2022-07-06T07:33:29;3.20;;;0.77;;
24261;SDS011;12385;51.412;5.540;2022-07-06T07:35:55;2.45;;;0.60;;
24261;SDS011;12385;51.412;5.540;2022-07-06T07:38:21;3.90;;;0.52;;
24261;SDS011;12385;51.412;5.540;2022-07-06T07:40:46;1.75;;;0.52;;
24261;SDS011;12385;51.412;5.540;2022-07-06T07:43:12;1.83;;;0.55;;
24261;SDS011;12385;51.412;5.540;2022-07-06T07:45:37;2.95;;;0.60;;
24261;SDS011;12385;51.412;5.540;2022-07-06T07:48:03;2.97;;;0.50;;
24261;SDS011;12385;51.412;5.540;2022-07-06T07:50:29;4.70;;;0.60;;
24261;SDS011;12385;51.412;5.540;2022-07-06T07:52:55;1.67;;;0.60;;
24261;SDS011;12385;51.412;5.540;2022-07-06T07:55:20;2.03;;;0.40;;
24261;SDS011;12385;51.412;5.540;2022-07-06T07:57:46;3.70;;;0.93;;
24261;SDS011;12385;51.412;5.540;2022-07-06T08:00:12;2.55;;;0.43;;
24261;SDS011;12385;51.412;5.540;2022-07-06T08:02:38;2.33;;;0.50;;
24261;SDS011;12385;51.412;5.540;2022-07-06T08:05:04;3.03;;;0.60;;
24261;SDS011;12385;51.412;5.540;2022-07-06T08:07:30;2.58;;;0.40;;
24261;SDS011;12385;51.412;5.540;2022-07-06T08:09:56;1.63;;;0.50;;
24261;SDS011;12385;51.412;5.540;2022-07-06T08:12:21;2.78;;;0.50;;
24261;SDS011;12385;51.412;5.540;2022-07-06T08:14:47;4.20;;;0.50;;
24261;SDS011;12385;51.412;5.540;2022-07-06T08:17:12;1.70;;;0.35;;
24261;SDS011;12385;51.412;5.540;2022-07-06T08:19:38;2.88;;;0.43;;
24261;SDS011;12385;51.412;5.540;2022-07-06T08:22:04;3.78;;;0.50;;
24261;SDS011;12385;51.412;5.540;2022-07-06T08:24:33;1.40;;;0.40;;
24261;SDS011;12385;51.412;5.540;2022-07-06T08:26:59;1.48;;;0.50;;
24261;SDS011;12385;51.412;5.540;2022-07-06T08:29:25;1.52;;;0.50;;
24261;SDS011;12385;51.412;5.540;2022-07-06T08:31:50;0.95;;;0.25;;
24261;SDS011;12385;51.412;5.540;2022-07-06T08:34:16;1.48;;;0.50;;
24261;SDS011;12385;51.412;5.540;2022-07-06T08:36:42;2.33;;;0.57;;
24261;SDS011;12385;51.412;5.540;2022-07-06T08:39:07;6.95;;;0.73;;
24261;SDS011;12385;51.412;5.540;2022-07-06T08:41:33;2.45;;;0.50;;
24261;SDS011;12385;51.412;5.540;2022-07-06T08:44:01;1.90;;;0.30;;
24261;SDS011;12385;51.412;5.540;2022-07-06T08:46:27;1.33;;;0.35;;
24261;SDS011;12385;51.412;5.540;2022-07-06T08:48:54;2.03;;;0.30;;
24261;SDS011;12385;51.412;5.540;2022-07-06T08:51:20;2.92;;;0.47;;
24261;SDS011;12385;51.412;5.540;2022-07-06T08:53:47;0.40;;;0.20;;
24261;SDS011;12385;51.412;5.540;2022-07-06T08:56:15;1.75;;;0.50;;
24261;SDS011;12385;51.412;5.540;2022-07-06T08:58:43;1.45;;;0.50;;
24261;SDS011;12385;51.412;5.540;2022-07-06T09:01:09;1.38;;;0.50;;
24261;SDS011;12385;51.412;5.540;2022-07-06T09:03:36;1.95;;;0.30;;
24261;SDS011;12385;51.412;5.540;2022-07-06T09:06:03;1.60;;;0.30;;
24261;SDS011;12385;51.412;5.540;2022-07-06T09:08:31;2.60;;;0.40;;
24261;SDS011;12385;51.412;5.540;2022-07-06T09:10:57;2.05;;;0.35;;
24261;SDS011;12385;51.412;5.540;2022-07-06T09:13:23;1.05;;;0.40;;
24261;SDS011;12385;51.412;5.540;2022-07-06T09:15:49;5.43;;;0.73;;
24261;SDS011;12385;51.412;5.540;2022-07-06T09:18:14;3.00;;;0.40;;
24261;SDS011;12385;51.412;5.540;2022-07-06T09:20:40;1.38;;;0.30;;
24261;SDS011;12385;51.412;5.540;2022-07-06T09:23:06;1.13;;;0.30;;
24261;SDS011;12385;51.412;5.540;2022-07-06T09:25:32;3.05;;;0.60;;
24261;SDS011;12385;51.412;5.540;2022-07-06T09:27:59;2.53;;;0.73;;
24261;SDS011;12385;51.412;5.540;2022-07-06T09:30:26;1.70;;;0.25;;
24261;SDS011;12385;51.412;5.540;2022-07-06T09:32:54;1.95;;;0.40;;
24261;SDS011;12385;51.412;5.540;2022-07-06T09:38:01;4.78;;;0.75;;
24261;SDS011;12385;51.412;5.540;2022-07-06T09:40:37;3.90;;;0.60;;
24261;SDS011;12385;51.412;5.540;2022-07-06T09:43:12;3.35;;;0.68;;
24261;SDS011;12385;51.412;5.540;2022-07-06T09:45:40;4.38;;;0.70;;
24261;SDS011;12385;51.412;5.540;2022-07-06T09:48:08;5.00;;;0.60;;
24261;SDS011;12385;51.412;5.540;2022-07-06T09:53:16;3.55;;;0.60;;
24261;SDS011;12385;51.412;5.540;2022-07-06T09:55:46;2.75;;;0.85;;
24261;SDS011;12385;51.412;5.540;2022-07-06T09:58:13;1.77;;;0.50;;
24261;SDS011;12385;51.412;5.540;2022-07-06T10:00:40;4.60;;;0.50;;
24261;SDS011;12385;51.412;5.540;2022-07-06T10:03:06;1.50;;;0.52;;
24261;SDS011;12385;51.412;5.540;2022-07-06T10:05:33;1.77;;;0.50;;
24261;SDS011;12385;51.412;5.540;2022-07-06T10:08:02;2.03;;;0.50;;
24261;SDS011;12385;51.412;5.540;2022-07-06T10:10:30;3.22;;;0.60;;
24261;SDS011;12385;51.412;5.540;2022-07-06T10:12:57;2.92;;;1.00;;
24261;SDS011;12385;51.412;5.540;2022-07-06T10:15:25;1.58;;;0.40;;
24261;SDS011;12385;51.412;5.540;2022-07-06T10:17:52;1.70;;;0.50;;
24261;SDS011;12385;51.412;5.540;2022-07-06T10:20:18;2.72;;;0.50;;
24261;SDS011;12385;51.412;5.540;2022-07-06T10:22:48;1.58;;;0.40;;
24261;SDS011;12385;51.412;5.540;2022-07-06T10:27:41;4.13;;;0.60;;
24261;SDS011;12385;51.412;5.540;2022-07-06T10:30:08;5.07;;;0.68;;
24261;SDS011;12385;51.412;5.540;2022-07-06T10:32:35;4.32;;;0.40;;
24261;SDS011;12385;51.412;5.540;2022-07-06T10:35:04;2.35;;;0.60;;
24261;SDS011;12385;51.412;5.540;2022-07-06T10:37:30;3.58;;;0.50;;
24261;SDS011;12385;51.412;5.540;2022-07-06T10:39:57;2.75;;;0.55;;
24261;SDS011;12385;51.412;5.540;2022-07-06T10:45:08;4.05;;;0.45;;
24261;SDS011;12385;51.412;5.540;2022-07-06T10:47:35;5.25;;;0.40;;
24261;SDS011;12385;51.412;5.540;2022-07-06T10:50:02;2.97;;;0.65;;
24261;SDS011;12385;51.412;5.540;2022-07-06T10:55:35;4.30;;;0.52;;
24261;SDS011;12385;51.412;5.540;2022-07-06T10:58:04;4.82;;;0.60;;
24261;SDS011;12385;51.412;5.540;2022-07-06T11:06:00;3.65;;;0.52;;
24261;SDS011;12385;51.412;5.540;2022-07-06T11:08:49;1.23;;;0.30;;
24261;SDS011;12385;51.412;5.540;2022-07-06T11:14:06;1.98;;;0.50;;
24261;SDS011;12385;51.412;5.540;2022-07-06T11:24:12;2.20;;;0.50;;
24261;SDS011;12385;51.412;5.540;2022-07-06T11:26:39;1.73;;;0.50;;
24261;SDS011;12385;51.412;5.540;2022-07-06T11:29:08;3.83;;;0.60;;
24261;SDS011;12385;51.412;5.540;2022-07-06T11:31:36;3.22;;;0.50;;
24261;SDS011;12385;51.412;5.540;2022-07-06T11:34:06;1.00;;;0.30;;
24261;SDS011;12385;51.412;5.540;2022-07-06T11:36:33;2.58;;;0.38;;
24261;SDS011;12385;51.412;5.540;2022-07-06T11:38:59;4.38;;;0.50;;
24261;SDS011;12385;51.412;5.540;2022-07-06T11:41:25;3.25;;;0.57;;
24261;SDS011;12385;51.412;5.540;2022-07-06T11:43:51;2.22;;;0.40;;
24261;SDS011;12385;51.412;5.540;2022-07-06T11:46:27;2.78;;;0.55;;
24261;SDS011;12385;51.412;5.540;2022-07-06T11:48:54;1.48;;;0.40;;
24261;SDS011;12385;51.412;5.540;2022-07-06T11:51:25;1.98;;;0.50;;
24261;SDS011;12385;51.412;5.540;2022-07-06T11:53:54;1.45;;;0.40;;
24261;SDS011;12385;51.412;5.540;2022-07-06T11:56:21;2.15;;;0.60;;
24261;SDS011;12385;51.412;5.540;2022-07-06T11:58:52;2.38;;;0.50;;
24261;SDS011;12385;51.412;5.540;2022-07-06T12:01:22;1.63;;;0.52;;
24261;SDS011;12385;51.412;5.540;2022-07-06T12:03:50;2.20;;;0.60;;
24261;SDS011;12385;51.412;5.540;2022-07-06T12:08:50;2.17;;;0.30;;
24261;SDS011;12385;51.412;5.540;2022-07-06T12:11:18;1.70;;;0.50;;
24261;SDS011;12385;51.412;5.540;2022-07-06T12:13:48;3.53;;;0.60;;
24261;SDS011;12385;51.412;5.540;2022-07-06T12:16:15;3.85;;;0.73;;
24261;SDS011;12385;51.412;5.540;2022-07-06T12:18:41;2.25;;;0.50;;
24261;SDS011;12385;51.412;5.540;2022-07-06T12:21:09;2.30;;;0.70;;
24261;SDS011;12385;51.412;5.540;2022-07-06T12:23:41;3.53;;;0.40;;
24261;SDS011;12385;51.412;5.540;2022-07-06T12:26:12;3.53;;;0.50;;
24261;SDS011;12385;51.412;5.540;2022-07-06T12:28:39;4.05;;;0.50;;
24261;SDS011;12385;51.412;5.540;2022-07-06T12:31:05;6.20;;;0.57;;
24261;SDS011;12385;51.412;5.540;2022-07-06T12:33:31;3.20;;;0.70;;
24261;SDS011;12385;51.412;5.540;2022-07-06T12:35:57;1.70;;;0.50;;
24261;SDS011;12385;51.412;5.540;2022-07-06T12:38:40;2.50;;;0.60;;
24261;SDS011;12385;51.412;5.540;2022-07-06T12:41:25;2.88;;;0.70;;
24261;SDS011;12385;51.412;5.540;2022-07-06T12:43:59;3.13;;;0.50;;
24261;SDS011;12385;51.412;5.540;2022-07-06T12:46:44;3.25;;;0.68;;
24261;SDS011;12385;51.412;5.540;2022-07-06T12:49:11;4.82;;;0.70;;
24261;SDS011;12385;51.412;5.540;2022-07-06T12:54:18;4.05;;;0.57;;
24261;SDS011;12385;51.412;5.540;2022-07-06T12:59:26;3.13;;;0.60;;
24261;SDS011;12385;51.412;5.540;2022-07-06T13:01:54;4.80;;;0.52;;
24261;SDS011;12385;51.412;5.540;2022-07-06T13:04:21;1.85;;;0.55;;
24261;SDS011;12385;51.412;5.540;2022-07-06T13:06:48;3.60;;;0.60;;
24261;SDS011;12385;51.412;5.540;2022-07-06T13:09:14;3.75;;;0.55;;
24261;SDS011;12385;51.412;5.540;2022-07-06T13:11:41;4.53;;;0.85;;
24261;SDS011;12385;51.412;5.540;2022-07-06T13:14:07;4.82;;;0.80;;
24261;SDS011;12385;51.412;5.540;2022-07-06T13:16:34;3.03;;;0.88;;
24261;SDS011;12385;51.412;5.540;2022-07-06T13:19:00;3.35;;;0.90;;
24261;SDS011;12385;51.412;5.540;2022-07-06T13:21:26;5.57;;;1.05;;
24261;SDS011;12385;51.412;5.540;2022-07-06T13:23:52;3.22;;;1.00;;
24261;SDS011;12385;51.412;5.540;2022-07-06T13:26:18;5.20;;;0.77;;
24261;SDS011;12385;51.412;5.540;2022-07-06T13:28:43;3.17;;;0.80;;
24261;SDS011;12385;51.412;5.540;2022-07-06T13:31:09;5.20;;;0.55;;
24261;SDS011;12385;51.412;5.540;2022-07-06T13:33:35;2.42;;;0.70;;
24261;SDS011;12385;51.412;5.540;2022-07-06T13:36:01;1.05;;;0.40;;
24261;SDS011;12385;51.412;5.540;2022-07-06T13:38:27;4.28;;;0.50;;
24261;SDS011;12385;51.412;5.540;2022-07-06T13:40:53;1.40;;;0.60;;
24261;SDS011;12385;51.412;5.540;2022-07-06T13:43:18;3.97;;;0.60;;
24261;SDS011;12385;51.412;5.540;2022-07-06T13:45:45;3.28;;;0.70;;
24261;SDS011;12385;51.412;5.540;2022-07-06T13:48:11;4.72;;;0.77;;
24261;SDS011;12385;51.412;5.540;2022-07-06T13:50:37;2.67;;;0.60;;
24261;SDS011;12385;51.412;5.540;2022-07-06T13:53:03;2.05;;;0.50;;
24261;SDS011;12385;51.412;5.540;2022-07-06T13:55:29;2.90;;;0.50;;
24261;SDS011;12385;51.412;5.540;2022-07-06T13:57:55;1.60;;;0.57;;
24261;SDS011;12385;51.412;5.540;2022-07-06T14:00:21;3.95;;;0.70;;
24261;SDS011;12385;51.412;5.540;2022-07-06T14:02:46;3.08;;;0.70;;
24261;SDS011;12385;51.412;5.540;2022-07-06T14:05:12;2.58;;;0.60;;
24261;SDS011;12385;51.412;5.540;2022-07-06T14:07:38;2.78;;;0.70;;
24261;SDS011;12385;51.412;5.540;2022-07-06T14:10:04;1.58;;;0.50;;
24261;SDS011;12385;51.412;5.540;2022-07-06T14:12:30;1.60;;;0.50;;
24261;SDS011;12385;51.412;5.540;2022-07-06T14:14:56;3.13;;;0.70;;
24261;SDS011;12385;51.412;5.540;2022-07-06T14:17:21;4.20;;;0.60;;
24261;SDS011;12385;51.412;5.540;2022-07-06T14:19:48;2.10;;;0.70;;
24261;SDS011;12385;51.412;5.540;2022-07-06T14:22:14;3.10;;;0.80;;
24261;SDS011;12385;51.412;5.540;2022-07-06T14:24:39;3.63;;;0.60;;
24261;SDS011;12385;51.412;5.540;2022-07-06T14:27:05;3.08;;;0.70;;
24261;SDS011;12385;51.412;5.540;2022-07-06T14:29:31;4.18;;;0.50;;
24261;SDS011;12385;51.412;5.540;2022-07-06T14:31:57;3.22;;;0.70;;
24261;SDS011;12385;51.412;5.540;2022-07-06T14:34:23;2.17;;;0.47;;
24261;SDS011;12385;51.412;5.540;2022-07-06T14:36:49;2.15;;;0.57;;
24261;SDS011;12385;51.412;5.540;2022-07-06T14:39:15;2.33;;;0.68;;
24261;SDS011;12385;51.412;5.540;2022-07-06T14:41:41;4.57;;;0.70;;
24261;SDS011;12385;51.412;5.540;2022-07-06T14:44:06;4.30;;;0.98;;
24261;SDS011;12385;51.412;5.540;2022-07-06T14:46:32;3.55;;;0.70;;
24261;SDS011;12385;51.412;5.540;2022-07-06T14:48:59;3.60;;;0.70;;
24261;SDS011;12385;51.412;5.540;2022-07-06T14:51:25;2.38;;;0.55;;
24261;SDS011;12385;51.412;5.540;2022-07-06T14:53:51;2.97;;;0.75;;
24261;SDS011;12385;51.412;5.540;2022-07-06T14:56:16;3.80;;;0.50;;
24261;SDS011;12385;51.412;5.540;2022-07-06T14:58:42;3.63;;;0.60;;
24261;SDS011;12385;51.412;5.540;2022-07-06T15:01:13;1.88;;;0.50;;
24261;SDS011;12385;51.412;5.540;2022-07-06T15:03:47;2.35;;;0.68;;
24261;SDS011;12385;51.412;5.540;2022-07-06T15:06:13;3.40;;;0.80;;
24261;SDS011;12385;51.412;5.540;2022-07-06T15:08:39;1.33;;;0.57;;
24261;SDS011;12385;51.412;5.540;2022-07-06T15:11:05;4.68;;;0.73;;
24261;SDS011;12385;51.412;5.540;2022-07-06T15:13:31;3.00;;;0.63;;
24261;SDS011;12385;51.412;5.540;2022-07-06T15:15:56;2.80;;;0.50;;
24261;SDS011;12385;51.412;5.540;2022-07-06T15:18:22;2.72;;;0.50;;
24261;SDS011;12385;51.412;5.540;2022-07-06T15:20:47;2.03;;;0.60;;